Time;durP1;ratioP1;P1;durP2;ratioP2;P2;SDS_P1;SDS_P2;PMS_P1;PMS_P2;Temp;Humidity;BMP_temperature;BMP_pressure;BME280_temperature;BME280_humidity;BME280_pressure;Samples;Min_cycle;Max_cycle;Signal;HPM_P1;HPM_P2
2021/05/01 00:02:06;;;;;;;16.80;10.13;;;8.60;97.30;;;;;;4956216;28;20693;-86
2021/05/01 00:04:32;;;;;;;19.90;11.97;;;8.50;97.30;;;;;;4957562;28;20209;-86
2021/05/01 00:06:58;;;;;;;17.53;10.80;;;8.50;97.30;;;;;;4956042;28;20914;-86
2021/05/01 00:09:26;;;;;;;19.63;12.20;;;8.50;97.30;;;;;;4957220;28;20233;-87
2021/05/01 00:11:51;;;;;;;18.77;11.53;;;8.50;97.30;;;;;;4957731;28;20280;-87
2021/05/01 00:14:17;;;;;;;25.33;12.07;;;8.50;97.30;;;;;;4975284;28;20935;-87
2021/05/01 00:16:42;;;;;;;18.57;11.40;;;8.50;97.30;;;;;;4957553;28;20265;-87
2021/05/01 00:19:08;;;;;;;19.30;12.30;;;8.50;97.30;;;;;;4957945;28;20573;-87
2021/05/01 00:21:34;;;;;;;18.77;11.63;;;8.50;97.30;;;;;;4975639;28;20206;-87
2021/05/01 00:24:03;;;;;;;21.67;13.27;;;8.40;97.30;;;;;;4957738;28;20418;-87
2021/05/01 00:26:28;;;;;;;19.57;12.03;;;8.40;97.30;;;;;;4957562;28;20255;-87
2021/05/01 00:28:56;;;;;;;19.73;12.37;;;8.40;97.30;;;;;;4957487;28;20441;-87
2021/05/01 00:31:29;;;;;;;18.90;11.43;;;8.40;97.30;;;;;;4956881;28;20206;-87
2021/05/01 00:33:56;;;;;;;17.20;10.43;;;8.40;97.30;;;;;;4973797;28;20574;-87
2021/05/01 00:36:22;;;;;;;17.27;11.43;;;8.40;97.30;;;;;;4956599;28;20410;-87
2021/05/01 00:38:48;;;;;;;18.30;10.87;;;8.40;97.30;;;;;;4956156;28;20430;-87
2021/05/01 00:41:16;;;;;;;23.93;11.67;;;8.40;97.30;;;;;;4956391;28;20182;-87
2021/05/01 00:43:41;;;;;;;16.97;11.40;;;8.40;97.30;;;;;;4956564;28;20678;-86
2021/05/01 00:46:08;;;;;;;17.73;11.10;;;8.40;97.30;;;;;;4956351;28;20429;-87
2021/05/01 00:48:34;;;;;;;19.33;11.40;;;8.30;97.30;;;;;;4956495;28;20677;-88
2021/05/01 00:51:02;;;;;;;16.63;11.27;;;8.30;97.30;;;;;;4973308;28;21028;-86
2021/05/01 00:53:28;;;;;;;17.70;11.13;;;8.30;97.30;;;;;;4955086;28;20822;-87
2021/05/01 00:55:55;;;;;;;20.20;12.00;;;8.30;97.30;;;;;;4954221;28;20553;-87
2021/05/01 00:58:23;;;;;;;23.33;13.00;;;8.30;97.30;;;;;;4955113;28;20337;-87
2021/05/01 01:01:16;;;;;;;17.50;11.27;;;8.30;97.30;;;;;;4955102;28;20788;-86
2021/05/01 01:03:44;;;;;;;19.10;11.13;;;8.30;97.30;;;;;;4972310;28;20800;-87
2021/05/01 01:06:11;;;;;;;18.47;11.40;;;8.30;97.30;;;;;;4955482;28;20467;-86
2021/05/01 01:08:37;;;;;;;18.43;11.20;;;8.30;97.30;;;;;;4955098;28;20496;-86
2021/05/01 01:11:06;;;;;;;18.23;11.43;;;8.30;97.30;;;;;;4954890;28;20461;-89
2021/05/01 01:13:34;;;;;;;19.80;12.17;;;8.30;97.30;;;;;;4955645;28;21015;-87
2021/05/01 01:16:00;;;;;;;20.57;11.63;;;8.30;97.30;;;;;;4972275;28;20472;-86
2021/05/01 01:18:26;;;;;;;20.10;12.20;;;8.30;97.30;;;;;;4955854;28;20533;-87
2021/05/01 01:20:55;;;;;;;18.60;11.63;;;8.30;97.30;;;;;;4956531;28;20422;-86
2021/05/01 01:23:25;;;;;;;19.60;12.23;;;8.20;97.30;;;;;;4956923;28;20206;-87
2021/05/01 01:25:58;;;;;;;16.87;11.50;;;8.20;97.30;;;;;;4957456;28;20426;-87
2021/05/01 01:28:26;;;;;;;15.50;10.80;;;8.20;97.30;;;;;;4957727;28;20444;-87
2021/05/01 01:30:51;;;;;;;20.60;11.73;;;8.20;97.30;;;;;;4957213;28;20454;-86
2021/05/01 01:33:17;;;;;;;19.50;12.23;;;8.20;97.30;;;;;;4957289;28;20476;-87
2021/05/01 01:35:42;;;;;;;16.40;11.10;;;8.20;97.30;;;;;;4957496;28;20189;-87
2021/05/01 01:38:08;;;;;;;20.50;12.30;;;8.20;97.30;;;;;;4956954;28;20673;-86
2021/05/01 01:40:36;;;;;;;19.33;11.80;;;8.20;97.30;;;;;;4956041;28;20485;-87
2021/05/01 01:43:04;;;;;;;19.03;11.80;;;8.20;97.30;;;;;;4955416;28;20329;-86
2021/05/01 01:45:29;;;;;;;18.20;11.17;;;8.20;97.30;;;;;;4956115;28;20442;-86
2021/05/01 01:47:56;;;;;;;19.90;11.00;;;8.20;97.30;;;;;;4956644;28;20472;-86
2021/05/01 01:50:32;;;;;;;15.90;10.50;;;8.20;97.30;;;;;;4973181;28;20197;-87
2021/05/01 01:52:57;;;;;;;22.13;13.20;;;8.20;97.30;;;;;;4955594;28;20414;-87
2021/05/01 01:55:26;;;;;;;28.37;12.17;;;8.20;97.30;;;;;;4956441;28;20516;-87
2021/05/01 01:57:54;;;;;;;17.97;11.97;;;8.10;97.30;;;;;;4956701;28;20320;-87
2021/05/01 02:00:29;;;;;;;19.23;12.60;;;8.10;97.30;;;;;;4954880;28;20472;-87
2021/05/01 02:02:55;;;;;;;19.60;12.30;;;8.10;97.30;;;;;;4954476;28;20463;-87
2021/05/01 02:05:21;;;;;;;18.03;11.83;;;8.00;97.30;;;;;;4954444;28;20422;-87
2021/05/01 02:07:47;;;;;;;18.97;12.37;;;8.00;97.30;;;;;;4956337;28;20448;-87
2021/05/01 02:10:13;;;;;;;22.70;12.00;;;8.00;97.30;;;;;;4958247;28;20689;-87
2021/05/01 02:12:47;;;;;;;16.57;10.77;;;7.90;97.30;;;;;;4958275;28;20217;-86
2021/05/01 02:15:16;;;;;;;19.90;12.17;;;7.90;97.30;;;;;;4958486;28;20484;-87
2021/05/01 02:17:46;;;;;;;19.50;10.63;;;7.90;97.30;;;;;;4975347;28;20476;-87
2021/05/01 02:20:18;;;;;;;18.00;10.97;;;7.80;97.30;;;;;;4957447;28;20858;-87
2021/05/01 02:22:44;;;;;;;21.20;11.70;;;7.80;97.30;;;;;;4960385;28;20456;-86
2021/05/01 02:25:11;;;;;;;18.07;11.07;;;7.80;97.30;;;;;;4977742;28;20421;-86
2021/05/01 02:27:37;;;;;;;19.13;11.70;;;7.70;97.30;;;;;;4978207;28;20269;-87
2021/05/01 02:30:11;;;;;;;19.33;11.77;;;7.70;97.30;;;;;;4995887;28;20424;-87
2021/05/01 02:32:37;;;;;;;17.40;10.93;;;7.70;97.30;;;;;;4978799;28;20529;-86
2021/05/01 02:35:08;;;;;;;19.83;12.20;;;7.70;97.30;;;;;;4996667;28;20413;-87
2021/05/01 02:37:33;;;;;;;20.30;11.80;;;7.60;97.30;;;;;;4996477;28;20548;-88
2021/05/01 02:40:01;;;;;;;18.33;11.80;;;7.70;97.30;;;;;;4980153;28;20460;-87
2021/05/01 02:42:27;;;;;;;22.67;11.53;;;7.60;97.30;;;;;;4980310;28;20205;-87
2021/05/01 02:44:53;;;;;;;21.00;11.77;;;7.70;97.30;;;;;;4979071;28;20425;-87
2021/05/01 02:47:18;;;;;;;19.50;12.13;;;7.60;97.30;;;;;;4970863;28;20187;-87
2021/05/01 02:49:44;;;;;;;16.10;10.67;;;7.60;97.30;;;;;;4958529;28;20238;-86
2021/05/01 02:52:09;;;;;;;21.40;12.50;;;7.60;97.30;;;;;;4976177;28;20744;-86
2021/05/01 02:54:35;;;;;;;18.60;11.63;;;7.60;97.30;;;;;;4959458;28;20179;-86
2021/05/01 02:57:03;;;;;;;18.53;12.17;;;7.60;97.30;;;;;;4958850;28;20553;-86
2021/05/01 02:59:28;;;;;;;20.10;11.90;;;7.60;97.30;;;;;;4957987;28;20622;-87
2021/05/01 03:01:54;;;;;;;19.53;11.93;;;7.60;97.30;;;;;;4975563;28;20468;-87
2021/05/01 03:04:19;;;;;;;19.67;12.00;;;7.50;97.30;;;;;;4958169;28;20214;-87
2021/05/01 03:06:45;;;;;;;20.67;13.07;;;7.50;97.30;;;;;;4958221;28;20217;-86
2021/05/01 03:09:17;;;;;;;18.90;11.80;;;7.50;97.30;;;;;;4958140;28;20198;-87
2021/05/01 03:11:43;;;;;;;20.70;12.77;;;7.50;97.30;;;;;;4957127;28;20197;-86
2021/05/01 03:14:08;;;;;;;20.03;12.30;;;7.50;97.30;;;;;;4956733;28;20796;-87
2021/05/01 03:16:34;;;;;;;21.33;12.97;;;7.50;97.30;;;;;;4956611;28;20201;-88
2021/05/01 03:18:59;;;;;;;14.63;10.97;;;7.50;97.30;;;;;;4955788;28;20293;-87
2021/05/01 03:21:25;;;;;;;20.30;12.87;;;7.50;97.30;;;;;;4956946;28;20238;-86
2021/05/01 03:23:52;;;;;;;19.00;12.20;;;7.50;97.30;;;;;;4956826;28;20178;-87
2021/05/01 03:26:19;;;;;;;31.07;12.77;;;7.60;97.30;;;;;;4974364;28;20175;-87
2021/05/01 03:28:45;;;;;;;28.17;12.70;;;7.60;97.30;;;;;;4956610;28;20493;-86
2021/05/01 03:31:16;;;;;;;20.87;12.20;;;7.60;97.30;;;;;;4956410;28;20890;-86
2021/05/01 03:33:52;;;;;;;;;;;;;;;;;;;;;
2021/05/01 03:36:17;;;;;;;26.17;14.00;;;7.50;97.30;;;;;;4974765;28;20406;-88
2021/05/01 03:38:43;;;;;;;25.27;13.17;;;7.50;97.30;;;;;;4958114;28;20553;-87
2021/05/01 03:41:08;;;;;;;22.20;13.37;;;7.50;97.30;;;;;;4958553;28;20233;-86
2021/05/01 03:43:34;;;;;;;24.03;14.00;;;7.50;97.30;;;;;;4958429;28;20273;-87
2021/05/01 03:45:59;;;;;;;23.17;13.30;;;7.50;97.30;;;;;;4958727;28;20214;-87
2021/05/01 03:48:25;;;;;;;22.97;14.00;;;7.50;97.30;;;;;;4958976;28;20195;-86
2021/05/01 03:50:53;;;;;;;20.20;13.27;;;7.50;97.30;;;;;;4958748;28;20194;-87
2021/05/01 03:53:19;;;;;;;19.87;12.53;;;7.50;97.30;;;;;;4975891;28;20174;-87
2021/05/01 03:55:45;;;;;;;24.77;14.83;;;7.50;97.30;;;;;;4958530;28;20423;-86
2021/05/01 03:58:10;;;;;;;26.87;13.93;;;7.50;97.30;;;;;;4957716;28;20241;-87
2021/05/01 04:00:36;;;;;;;22.00;14.20;;;7.50;97.30;;;;;;4976894;28;20185;-89
2021/05/01 04:03:01;;;;;;;21.40;12.93;;;7.50;97.30;;;;;;4970648;28;20185;-87
2021/05/01 04:05:27;;;;;;;21.03;12.43;;;7.50;97.30;;;;;;4957745;28;20178;-86
2021/05/01 04:07:54;;;;;;;23.27;13.13;;;7.50;97.30;;;;;;4957557;28;20209;-87
2021/05/01 04:10:22;;;;;;;21.10;13.67;;;7.50;97.30;;;;;;4957216;28;20260;-87
2021/05/01 04:12:48;;;;;;;22.20;13.10;;;7.50;97.30;;;;;;4956951;28;20407;-88
2021/05/01 04:15:16;;;;;;;25.70;14.77;;;7.60;97.30;;;;;;4974285;28;20441;-86
2021/05/01 04:17:44;;;;;;;20.50;12.80;;;7.60;97.30;;;;;;4975019;28;20688;-85
2021/05/01 04:20:11;;;;;;;22.30;13.57;;;7.60;97.30;;;;;;4956150;28;20897;-87
2021/05/01 04:22:36;;;;;;;22.17;12.00;;;7.60;97.30;;;;;;4955740;28;20414;-86
2021/05/01 04:25:03;;;;;;;21.73;12.30;;;7.60;97.30;;;;;;4955616;28;20458;-87
2021/05/01 04:27:30;;;;;;;20.10;11.43;;;7.60;97.30;;;;;;4969881;28;20295;-87
2021/05/01 04:29:55;;;;;;;23.40;13.30;;;7.60;97.30;;;;;;4975763;28;20470;-87
2021/05/01 04:32:21;;;;;;;22.63;12.77;;;7.60;97.30;;;;;;4974837;28;20434;-87
2021/05/01 04:34:46;;;;;;;21.80;13.80;;;7.70;97.30;;;;;;4973913;28;20194;-87
2021/05/01 04:37:15;;;;;;;20.83;12.77;;;7.70;97.30;;;;;;4970775;28;20201;-87
2021/05/01 04:39:40;;;;;;;19.20;11.93;;;7.80;97.30;;;;;;4973454;28;20206;-86
2021/05/01 04:42:07;;;;;;;22.30;13.07;;;7.80;97.30;;;;;;4974926;28;20410;-87
2021/05/01 04:44:35;;;;;;;21.83;12.17;;;7.80;97.30;;;;;;4991816;28;20221;-88
2021/05/01 04:47:03;;;;;;;24.87;11.93;;;7.80;97.30;;;;;;4975678;28;20405;-87
2021/05/01 04:49:29;;;;;;;19.70;13.00;;;7.80;97.30;;;;;;4992430;28;20493;-88
2021/05/01 04:51:54;;;;;;;20.90;12.67;;;7.90;97.30;;;;;;4972868;28;20487;-86
2021/05/01 04:54:20;;;;;;;22.47;13.00;;;7.90;97.30;;;;;;4971159;28;20186;-87
2021/05/01 04:56:45;;;;;;;22.30;12.73;;;7.90;97.30;;;;;;4972658;28;20191;-87
2021/05/01 04:59:11;;;;;;;21.30;12.03;;;8.00;97.30;;;;;;4965342;28;20194;-86
2021/05/01 05:01:36;;;;;;;25.00;11.83;;;8.00;97.30;;;;;;4957778;28;20185;-85
2021/05/01 05:04:06;;;;;;;20.50;13.00;;;8.00;97.30;;;;;;4956988;28;20557;-87
2021/05/01 05:06:36;;;;;;;19.97;13.00;;;8.00;97.30;;;;;;4956936;28;20239;-86
2021/05/01 05:09:02;;;;;;;20.13;12.77;;;8.10;97.30;;;;;;4974000;28;20525;-87
2021/05/01 05:11:28;;;;;;;18.27;12.60;;;8.10;97.30;;;;;;4955891;28;20466;-87
2021/05/01 05:13:56;;;;;;;21.10;13.17;;;8.10;97.30;;;;;;4961853;28;20940;-85
2021/05/01 05:16:24;;;;;;;17.57;12.27;;;8.10;97.30;;;;;;4978439;28;20445;-88
2021/05/01 05:18:58;;;;;;;23.30;14.77;;;8.10;97.30;;;;;;4977520;28;20473;-86
2021/05/01 05:21:26;;;;;;;21.57;13.80;;;8.10;97.30;;;;;;4980763;28;20434;-84
2021/05/01 05:24:05;;;;;;;20.13;12.50;;;8.20;97.30;;;;;;4986890;28;20429;-83
2021/05/01 05:26:31;;;;;;;22.10;12.53;;;8.20;97.30;;;;;;4987679;28;20437;-86
2021/05/01 05:28:57;;;;;;;23.03;12.93;;;8.20;97.30;;;;;;4966856;28;20450;-86
2021/05/01 05:31:22;;;;;;;19.97;12.17;;;8.20;97.30;;;;;;4973663;28;20456;-86
2021/05/01 05:33:49;;;;;;;22.57;13.03;;;8.20;97.30;;;;;;4987683;28;20185;-87
2021/05/01 05:36:14;;;;;;;20.50;13.90;;;8.30;97.30;;;;;;4969086;28;20178;-88
2021/05/01 05:38:42;;;;;;;22.17;12.60;;;8.30;97.30;;;;;;4986906;28;20473;-86
2021/05/01 05:41:08;;;;;;;21.33;12.63;;;8.30;97.30;;;;;;4973151;28;20174;-87
2021/05/01 05:43:34;;;;;;;23.10;13.40;;;8.30;97.30;;;;;;4977285;28;20505;-87
2021/05/01 05:46:17;;;;;;;20.43;12.37;;;8.40;97.30;;;;;;4979308;28;20217;-85
2021/05/01 05:48:45;;;;;;;22.47;13.20;;;8.40;97.30;;;;;;4975790;28;20649;-86
2021/05/01 05:51:18;;;;;;;21.67;12.93;;;8.50;97.30;;;;;;4994851;28;20456;-86
2021/05/01 05:53:46;;;;;;;30.63;15.00;;;8.50;97.30;;;;;;4995586;28;20448;-86
2021/05/01 05:57:17;;;;;;;23.93;12.57;;;8.60;97.30;;;;;;4971289;28;20447;-87
2021/05/01 05:59:17;;;;;;;22.20;13.50;;;8.70;97.30;;;;;;4977083;28;20474;-86
2021/05/01 06:01:47;;;;;;;26.03;13.40;;;8.70;97.30;;;;;;4989410;28;20942;-86
2021/05/01 06:04:21;;;;;;;20.50;12.60;;;8.80;97.30;;;;;;4985967;23;20265;-78
2021/05/01 06:06:58;;;;;;;22.27;12.77;;;8.90;97.30;;;;;;4966974;28;20925;-78
2021/05/01 06:09:27;;;;;;;24.70;13.87;;;8.90;97.30;;;;;;4975350;28;20467;-79
2021/05/01 06:11:54;;;;;;;25.90;14.50;;;9.00;97.30;;;;;;4973842;28;20982;-79
2021/05/01 06:14:22;;;;;;;21.40;13.20;;;9.10;97.30;;;;;;4973813;28;20449;-79
2021/05/01 06:16:47;;;;;;;24.87;15.40;;;9.20;97.30;;;;;;4974186;28;20504;-79
2021/05/01 06:19:13;;;;;;;22.20;14.00;;;9.30;97.30;;;;;;4973797;28;20484;-78
2021/05/01 06:21:39;;;;;;;24.93;14.80;;;9.40;97.30;;;;;;4973822;28;20198;-79
2021/05/01 06:24:07;;;;;;;21.70;14.20;;;9.60;97.30;;;;;;4975119;28;20179;-79
2021/05/01 06:26:36;;;;;;;24.17;13.00;;;9.70;97.30;;;;;;4973187;28;20430;-79
2021/05/01 06:29:04;;;;;;;22.77;13.10;;;9.80;97.30;;;;;;4975059;28;20504;-79
2021/05/01 06:31:33;;;;;;;20.83;13.53;;;9.90;97.30;;;;;;4973831;28;21260;-79
2021/05/01 06:33:59;;;;;;;21.53;13.07;;;10.00;97.30;;;;;;4974460;28;20407;-79
2021/05/01 06:36:25;;;;;;;21.80;14.00;;;10.10;97.30;;;;;;4973864;28;20414;-79
2021/05/01 06:38:53;;;;;;;19.03;12.87;;;10.10;97.30;;;;;;4973674;28;20418;-79
2021/05/01 06:41:20;;;;;;;19.13;12.23;;;10.10;97.30;;;;;;4972852;28;20289;-80
2021/05/01 06:44:02;;;;;;;20.37;12.70;;;10.20;97.30;;;;;;4973771;28;20516;-78
2021/05/01 06:46:30;;;;;;;20.83;13.47;;;10.30;97.30;;;;;;4971968;28;20421;-79
2021/05/01 06:48:58;;;;;;;23.43;13.93;;;10.50;97.30;;;;;;4953770;29;20421;-81
2021/05/01 06:51:25;;;;;;;20.63;13.63;;;10.70;97.30;;;;;;4954254;28;20474;-78
2021/05/01 06:53:50;;;;;;;19.00;12.13;;;10.90;97.30;;;;;;4952463;28;20437;-76
2021/05/01 06:56:17;;;;;;;22.40;12.90;;;11.00;97.30;;;;;;4953905;29;20887;-78
2021/05/01 06:58:43;;;;;;;22.27;13.90;;;11.10;97.30;;;;;;4954008;29;20175;-76
2021/05/01 07:01:10;;;;;;;21.83;13.70;;;11.10;97.30;;;;;;4953527;28;20966;-76
2021/05/01 07:03:41;;;;;;;21.70;12.60;;;11.10;97.30;;;;;;4958084;28;20457;-76
2021/05/01 07:06:08;;;;;;;20.77;13.07;;;11.20;97.30;;;;;;4957196;28;20418;-78
2021/05/01 07:08:33;;;;;;;18.23;12.20;;;11.40;97.30;;;;;;4956816;28;20986;-76
2021/05/01 07:11:01;;;;;;;20.30;11.87;;;11.60;97.30;;;;;;4956834;28;20466;-78
2021/05/01 07:13:26;;;;;;;24.90;14.40;;;11.80;97.30;;;;;;4956906;28;20439;-76
2021/05/01 07:15:52;;;;;;;19.37;12.17;;;11.90;97.30;;;;;;4973480;28;20902;-77
2021/05/01 07:18:21;;;;;;;20.53;12.80;;;12.00;97.30;;;;;;4957275;28;20163;-76
2021/05/01 07:20:48;;;;;;;22.60;13.30;;;11.90;96.90;;;;;;4956290;28;20202;-76
2021/05/01 07:23:16;;;;;;;21.93;12.37;;;12.00;97.30;;;;;;4956478;28;20428;-75
2021/05/01 07:25:42;;;;;;;19.03;11.93;;;12.10;97.30;;;;;;4956655;28;20436;-75
2021/05/01 07:28:13;;;;;;;24.10;13.30;;;12.10;96.50;;;;;;4956082;28;20422;-76
2021/05/01 07:30:41;;;;;;;20.77;12.40;;;12.10;96.70;;;;;;4955950;28;20215;-77
2021/05/01 07:33:27;;;;;;;22.57;12.70;;;12.00;96.30;;;;;;4956560;28;20413;-76
2021/05/01 07:35:59;;;;;;;20.33;12.20;;;12.00;96.00;;;;;;4956255;28;20414;-75
2021/05/01 07:38:26;;;;;;;21.53;13.20;;;12.20;96.10;;;;;;4974010;28;20832;-75
2021/05/01 07:40:53;;;;;;;23.87;13.90;;;12.30;95.60;;;;;;4956423;28;20917;-76
2021/05/01 07:43:21;;;;;;;19.00;12.03;;;12.30;95.90;;;;;;4955748;28;20437;-76
2021/05/01 07:45:51;;;;;;;20.23;13.17;;;12.20;96.20;;;;;;4973882;28;20893;-75
2021/05/01 07:48:20;;;;;;;20.23;12.60;;;12.20;95.80;;;;;;4973721;28;20496;-75
2021/05/01 07:50:47;;;;;;;19.57;12.30;;;12.20;95.80;;;;;;4973064;28;20461;-75
2021/05/01 07:53:13;;;;;;;18.40;12.27;;;12.30;95.70;;;;;;4973193;28;20410;-75
2021/05/01 07:55:40;;;;;;;22.03;12.60;;;12.40;95.40;;;;;;4956040;28;20485;-75
2021/05/01 07:58:06;;;;;;;19.00;12.60;;;12.40;94.70;;;;;;4955590;28;20929;-76
2021/05/01 08:00:32;;;;;;;21.97;12.27;;;12.50;94.60;;;;;;4955985;28;20980;-75
2021/05/01 08:02:59;;;;;;;18.47;12.10;;;12.50;94.70;;;;;;4955449;28;20437;-75
2021/05/01 08:05:25;;;;;;;17.83;11.10;;;12.80;95.30;;;;;;4972616;28;20230;-75
2021/05/01 08:07:52;;;;;;;24.17;11.77;;;13.10;94.00;;;;;;4973125;28;20421;-75
2021/05/01 08:10:18;;;;;;;20.77;12.03;;;13.40;92.50;;;;;;4955287;28;20186;-75
2021/05/01 08:12:44;;;;;;;18.97;11.10;;;13.60;92.40;;;;;;4972332;28;20633;-75
2021/05/01 08:15:10;;;;;;;19.63;11.67;;;13.90;91.80;;;;;;4955661;28;20541;-74
2021/05/01 08:17:35;;;;;;;19.40;10.77;;;14.00;90.10;;;;;;4955579;28;20257;-75
2021/05/01 08:20:03;;;;;;;18.33;11.67;;;14.10;88.80;;;;;;4955391;28;21024;-74
2021/05/01 08:22:28;;;;;;;18.40;10.90;;;14.10;88.80;;;;;;4955145;28;20574;-75
2021/05/01 08:24:54;;;;;;;17.33;10.93;;;14.00;89.50;;;;;;4972379;28;20434;-74
2021/05/01 08:27:19;;;;;;;17.93;11.77;;;13.90;89.40;;;;;;4955422;28;20182;-75
2021/05/01 08:29:45;;;;;;;15.97;10.20;;;13.80;90.50;;;;;;4955309;28;20189;-75
2021/05/01 08:32:11;;;;;;;17.93;11.10;;;13.60;89.90;;;;;;4955016;28;20222;-77
2021/05/01 08:34:36;;;;;;;15.87;10.80;;;13.30;89.90;;;;;;4955073;28;20264;-74
2021/05/01 08:37:02;;;;;;;18.70;11.93;;;13.10;90.40;;;;;;4955206;28;20573;-75
2021/05/01 08:39:28;;;;;;;20.60;13.03;;;13.10;91.80;;;;;;4954697;28;20179;-75
2021/05/01 08:41:54;;;;;;;16.93;11.37;;;13.20;90.70;;;;;;4972406;28;20442;-75
2021/05/01 08:44:19;;;;;;;19.13;11.50;;;13.30;90.80;;;;;;4972269;28;20178;-74
2021/05/01 08:46:46;;;;;;;18.27;11.30;;;13.20;91.40;;;;;;4954689;28;20175;-74
2021/05/01 08:49:12;;;;;;;16.80;11.30;;;13.10;91.50;;;;;;4972578;28;20253;-77
2021/05/01 08:51:41;;;;;;;18.00;11.80;;;13.10;91.70;;;;;;4954625;28;20918;-75
2021/05/01 08:54:09;;;;;;;19.30;12.50;;;13.00;92.00;;;;;;4954578;28;20835;-76
2021/05/01 08:56:34;;;;;;;15.23;10.43;;;13.00;92.20;;;;;;4955096;28;20505;-76
2021/05/01 08:59:00;;;;;;;18.93;11.90;;;13.20;92.10;;;;;;4954456;28;20505;-75
2021/05/01 09:01:27;;;;;;;20.27;11.90;;;13.50;91.80;;;;;;4954867;28;20198;-75
2021/05/01 09:03:53;;;;;;;17.87;11.07;;;13.80;91.90;;;;;;4955176;28;20569;-77
2021/05/01 09:06:24;;;;;;;16.40;10.90;;;14.20;91.90;;;;;;4954787;28;20492;-75
2021/05/01 09:08:59;;;;;;;16.93;10.87;;;14.60;90.20;;;;;;4954354;28;20293;-78
2021/05/01 09:11:32;;;;;;;15.57;10.37;;;14.80;88.60;;;;;;4955165;28;20476;-75
2021/05/01 09:13:58;;;;;;;15.67;10.63;;;14.90;88.00;;;;;;4954420;28;20445;-77
2021/05/01 09:16:23;;;;;;;16.03;10.50;;;15.00;88.10;;;;;;4954780;28;20489;-75
2021/05/01 09:18:53;;;;;;;14.77;10.43;;;14.90;87.70;;;;;;4975993;28;20187;-75
2021/05/01 09:21:22;;;;;;;14.63;10.83;;;14.80;88.00;;;;;;4976705;28;20281;-75
2021/05/01 09:23:48;;;;;;;16.83;10.50;;;14.70;87.90;;;;;;4958822;28;20472;-77
2021/05/01 09:26:15;;;;;;;18.20;11.67;;;14.50;87.90;;;;;;4958727;28;20791;-75
2021/05/01 09:28:46;;;;;;;15.23;10.90;;;14.40;88.50;;;;;;4958937;28;20242;-75
2021/05/01 09:31:13;;;;;;;16.90;11.43;;;14.20;88.80;;;;;;4958020;28;20469;-75
2021/05/01 09:33:43;;;;;;;15.53;11.20;;;14.00;89.10;;;;;;4958392;28;20413;-75
2021/05/01 09:36:15;;;;;;;16.53;10.83;;;13.90;88.70;;;;;;4958950;28;20422;-75
2021/05/01 09:38:45;;;;;;;12.93;9.13;;;13.90;88.80;;;;;;4957997;28;20422;-75
2021/05/01 09:41:16;;;;;;;15.53;10.70;;;14.00;89.50;;;;;;4958638;28;21007;-75
2021/05/01 09:44:02;;;;;;;13.97;10.03;;;14.20;89.00;;;;;;4958267;28;20917;-75
2021/05/01 09:46:49;;;;;;;14.13;9.80;;;14.40;87.90;;;;;;4957879;28;20436;-75
2021/05/01 09:49:23;;;;;;;15.40;10.63;;;14.60;88.20;;;;;;4958016;28;20413;-75
2021/05/01 09:51:53;;;;;;;15.63;10.30;;;14.80;87.00;;;;;;4958139;28;20832;-75
2021/05/01 09:54:24;;;;;;;15.43;9.87;;;15.10;88.30;;;;;;4975738;28;20846;-75
2021/05/01 09:56:51;;;;;;;17.07;11.87;;;15.50;87.00;;;;;;4958667;28;20405;-75
2021/05/01 09:59:17;;;;;;;15.77;10.17;;;15.80;85.20;;;;;;4961446;28;20723;-77
2021/05/01 10:01:54;;;;;;;14.83;10.33;;;15.80;85.50;;;;;;4975154;28;20467;-77
2021/05/01 10:04:20;;;;;;;19.43;11.97;;;15.60;84.90;;;;;;4972811;28;20517;-75
2021/05/01 10:06:54;;;;;;;14.53;10.20;;;15.40;86.60;;;;;;4993735;28;20425;-75
2021/05/01 10:09:22;;;;;;;14.30;10.27;;;15.40;86.20;;;;;;4976988;28;20417;-75
2021/05/01 10:12:16;;;;;;;15.50;10.67;;;15.40;86.20;;;;;;4976622;28;20464;-75
2021/05/01 10:14:46;;;;;;;17.27;11.47;;;15.50;86.50;;;;;;4970288;28;20508;-75
2021/05/01 10:17:16;;;;;;;15.53;11.27;;;15.60;85.10;;;;;;4976165;28;20425;-77
2021/05/01 10:20:02;;;;;;;16.93;11.00;;;15.50;85.50;;;;;;4976365;28;20413;-78
2021/05/01 10:22:42;;;;;;;15.90;10.93;;;15.30;86.00;;;;;;4975259;28;20491;-78
2021/05/01 10:25:17;;;;;;;16.50;9.67;;;15.20;86.50;;;;;;4975607;28;20516;-76
2021/05/01 10:27:47;;;;;;;15.30;11.50;;;15.30;87.00;;;;;;4992550;28;20419;-77
2021/05/01 10:30:17;;;;;;;17.70;11.37;;;15.30;86.60;;;;;;4975110;28;20417;-77
2021/05/01 10:32:47;;;;;;;18.50;11.03;;;15.40;85.90;;;;;;4993239;28;20496;-78
2021/05/01 10:35:13;;;;;;;14.53;11.00;;;15.50;86.40;;;;;;4975542;28;20417;-77
2021/05/01 10:37:54;;;;;;;14.30;10.73;;;15.60;86.20;;;;;;4975191;28;20424;-77
2021/05/01 10:40:22;;;;;;;15.50;10.80;;;15.60;85.50;;;;;;4976271;28;20407;-78
2021/05/01 10:43:06;;;;;;;16.10;10.00;;;15.60;84.90;;;;;;4976478;28;20416;-78
2021/05/01 10:45:32;;;;;;;14.90;11.00;;;15.50;85.60;;;;;;4976515;28;20618;-76
2021/05/01 10:48:09;;;;;;;15.90;10.30;;;15.60;85.70;;;;;;4963381;28;20421;-77
2021/05/01 10:50:36;;;;;;;14.67;10.57;;;15.50;85.00;;;;;;4956765;28;20228;-79
2021/05/01 10:53:04;;;;;;;16.40;10.17;;;15.50;85.20;;;;;;4974136;28;20769;-77
2021/05/01 10:55:50;;;;;;;14.13;10.30;;;15.60;85.40;;;;;;4956889;28;20418;-77
2021/05/01 10:58:50;;;;;;;17.60;10.50;;;15.60;84.60;;;;;;4956663;28;20764;-77
2021/05/01 11:01:43;;;;;;;18.43;10.77;;;15.70;84.50;;;;;;4956782;28;20448;-79
2021/05/01 11:04:10;;;;;;;17.53;11.43;;;15.90;85.70;;;;;;4974389;28;20469;-77
2021/05/01 11:06:48;;;;;;;18.60;11.40;;;16.00;84.10;;;;;;4956740;28;20958;-77
2021/05/01 11:09:39;;;;;;;18.60;11.00;;;16.20;82.60;;;;;;4956863;28;20418;-75
2021/05/01 11:12:08;;;;;;;14.43;10.60;;;16.10;81.10;;;;;;4946886;28;21047;-77
2021/05/01 11:14:40;;;;;;;12.67;9.13;;;15.90;81.30;;;;;;4956487;28;20442;-76
2021/05/01 11:17:24;;;;;;;12.80;9.07;;;15.90;84.80;;;;;;4974177;28;20505;-77
2021/05/01 11:19:57;;;;;;;16.43;10.73;;;15.90;83.60;;;;;;4956273;28;20428;-78
2021/05/01 11:22:25;;;;;;;17.70;11.80;;;15.90;83.20;;;;;;4956423;28;20473;-77
2021/05/01 11:24:51;;;;;;;14.70;10.87;;;15.70;83.60;;;;;;4956906;28;20422;-78
2021/05/01 11:27:18;;;;;;;14.60;10.70;;;15.90;83.50;;;;;;4955903;28;20426;-80
2021/05/01 11:29:45;;;;;;;14.60;10.10;;;16.30;84.60;;;;;;4957184;28;20418;-77
2021/05/01 11:32:12;;;;;;;11.47;9.50;;;16.70;82.70;;;;;;4956254;28;20867;-76
2021/05/01 11:34:38;;;;;;;13.80;10.10;;;17.00;82.20;;;;;;4973136;28;20825;-79
2021/05/01 11:37:06;;;;;;;13.30;9.30;;;17.30;82.00;;;;;;4956146;28;20406;-79
2021/05/01 11:39:37;;;;;;;14.23;10.30;;;17.30;81.70;;;;;;4955766;28;20429;-79
2021/05/01 11:42:02;;;;;;;14.50;9.23;;;17.50;81.40;;;;;;4955963;28;20446;-81
2021/05/01 11:44:28;;;;;;;12.07;9.57;;;17.80;80.50;;;;;;4973251;28;20460;-76
2021/05/01 11:46:55;;;;;;;12.23;9.43;;;17.90;80.20;;;;;;4973075;28;20637;-77
2021/05/01 11:49:26;;;;;;;13.43;9.37;;;17.70;79.50;;;;;;4955568;28;20607;-78
2021/05/01 11:52:01;;;;;;;13.80;10.30;;;17.40;80.30;;;;;;4956128;28;20556;-77
2021/05/01 11:54:49;;;;;;;13.10;10.13;;;17.10;80.40;;;;;;4972994;28;20456;-77
2021/05/01 11:57:21;;;;;;;14.47;9.53;;;16.70;79.30;;;;;;4955777;28;20418;-77
2021/05/01 11:59:47;;;;;;;14.43;10.57;;;16.30;79.80;;;;;;4956052;28;20457;-77
2021/05/01 12:02:20;;;;;;;11.50;9.37;;;16.10;80.60;;;;;;4972836;28;20462;-77
2021/05/01 12:05:00;;;;;;;13.20;9.30;;;16.20;82.20;;;;;;4968188;23;20877;-76
2021/05/01 12:07:38;;;;;;;13.80;9.47;;;16.50;82.10;;;;;;4956016;28;20429;-76
2021/05/01 12:10:09;;;;;;;11.80;9.47;;;17.00;80.80;;;;;;4955253;28;20425;-77
2021/05/01 12:12:39;;;;;;;13.57;10.13;;;17.10;80.30;;;;;;4955538;28;20466;-76
2021/05/01 12:15:07;;;;;;;13.07;9.90;;;17.40;80.60;;;;;;4955729;28;20721;-77
2021/05/01 12:17:33;;;;;;;11.40;9.47;;;17.90;80.70;;;;;;4955481;28;20417;-77
2021/05/01 12:20:08;;;;;;;12.77;10.50;;;17.80;79.60;;;;;;4955726;28;20565;-76
2021/05/01 12:22:34;;;;;;;10.57;8.83;;;17.80;80.10;;;;;;4973411;28;20200;-75
2021/05/01 12:25:00;;;;;;;10.83;8.93;;;17.70;80.30;;;;;;4954845;28;20820;-76
2021/05/01 12:27:49;;;;;;;10.50;8.90;;;17.90;80.40;;;;;;4972878;28;20179;-76
2021/05/01 12:30:39;;;;;;;13.03;9.83;;;18.10;80.60;;;;;;4955736;28;20178;-76
2021/05/01 12:33:23;;;;;;;12.80;9.80;;;18.10;79.20;;;;;;4954759;28;20489;-76
2021/05/01 12:36:24;;;;;;;13.33;9.47;;;18.00;77.40;;;;;;4955791;28;20781;-76
2021/05/01 12:38:50;;;;;;;10.50;9.03;;;17.90;77.70;;;;;;4939606;28;20799;-76
2021/05/01 12:41:20;;;;;;;11.83;9.47;;;18.00;78.80;;;;;;4972942;28;20433;-76
2021/05/01 12:43:49;;;;;;;11.30;8.97;;;18.10;79.50;;;;;;4956768;28;20413;-76